sensor_id;sensor_type;location;lat;lon;timestamp;pressure;altitude;pressure_sealevel;temperature;humidity
23417;BME280;11881;42.432;25.632;2022-07-29T00:00:58;99223.88;;;25.05;79.35
23417;BME280;11881;42.432;25.632;2022-07-29T00:03:23;99228.00;;;25.08;78.90
23417;BME280;11881;42.432;25.632;2022-07-29T00:05:49;99223.16;;;25.10;79.30
23417;BME280;11881;42.432;25.632;2022-07-29T00:08:14;99221.25;;;25.10;80.03
23417;BME280;11881;42.432;25.632;2022-07-29T00:10:41;99218.53;;;25.10;79.98
23417;BME280;11881;42.432;25.632;2022-07-29T00:13:07;99224.78;;;24.99;80.57
23417;BME280;11881;42.432;25.632;2022-07-29T00:15:32;99221.31;;;25.04;80.20
23417;BME280;11881;42.432;25.632;2022-07-29T00:17:58;99221.69;;;24.95;80.74
23417;BME280;11881;42.432;25.632;2022-07-29T00:20:23;99221.94;;;24.64;82.13
23417;BME280;11881;42.432;25.632;2022-07-29T00:22:49;99225.69;;;24.51;82.58
23417;BME280;11881;42.432;25.632;2022-07-29T00:25:14;99221.19;;;24.57;82.45
23417;BME280;11881;42.432;25.632;2022-07-29T00:27:39;99220.09;;;24.46;82.80
23417;BME280;11881;42.432;25.632;2022-07-29T00:30:06;99210.53;;;24.55;82.30
23417;BME280;11881;42.432;25.632;2022-07-29T00:32:31;99208.66;;;24.56;82.45
23417;BME280;11881;42.432;25.632;2022-07-29T00:34:57;99206.75;;;24.56;82.52
23417;BME280;11881;42.432;25.632;2022-07-29T00:37:41;99200.50;;;24.67;81.41
23417;BME280;11881;42.432;25.632;2022-07-29T00:40:07;99199.78;;;24.60;82.01
23417;BME280;11881;42.432;25.632;2022-07-29T00:42:46;99208.78;;;24.61;81.95
23417;BME280;11881;42.432;25.632;2022-07-29T00:45:13;99203.09;;;24.62;81.82
23417;BME280;11881;42.432;25.632;2022-07-29T00:47:39;99197.34;;;24.71;81.42
23417;BME280;11881;42.432;25.632;2022-07-29T00:50:05;99195.31;;;24.66;82.34
23417;BME280;11881;42.432;25.632;2022-07-29T00:52:33;99197.94;;;24.73;82.17
23417;BME280;11881;42.432;25.632;2022-07-29T00:54:59;99195.75;;;24.63;82.76
23417;BME280;11881;42.432;25.632;2022-07-29T00:57:24;99198.56;;;24.56;83.00
23417;BME280;11881;42.432;25.632;2022-07-29T00:59:50;99186.47;;;24.52;83.37
23417;BME280;11881;42.432;25.632;2022-07-29T01:02:15;99197.25;;;24.47;83.70
23417;BME280;11881;42.432;25.632;2022-07-29T01:04:41;99193.19;;;24.38;83.75
23417;BME280;11881;42.432;25.632;2022-07-29T01:07:06;99195.44;;;24.41;84.10
23417;BME280;11881;42.432;25.632;2022-07-29T01:09:33;99192.72;;;24.41;83.60
23417;BME280;11881;42.432;25.632;2022-07-29T01:11:59;99181.13;;;24.46;82.81
23417;BME280;11881;42.432;25.632;2022-07-29T01:14:26;99182.44;;;24.43;82.51
23417;BME280;11881;42.432;25.632;2022-07-29T01:16:56;99186.56;;;24.46;82.23
23417;BME280;11881;42.432;25.632;2022-07-29T01:19:47;99188.47;;;24.45;82.45
23417;BME280;11881;42.432;25.632;2022-07-29T01:22:51;99187.81;;;24.31;83.20
23417;BME280;11881;42.432;25.632;2022-07-29T01:28:52;99195.00;;;24.26;83.01
23417;BME280;11881;42.432;25.632;2022-07-29T01:34:11;99189.03;;;24.35;83.53
23417;BME280;11881;42.432;25.632;2022-07-29T01:36:43;99184.78;;;24.39;82.42
23417;BME280;11881;42.432;25.632;2022-07-29T01:39:25;99188.94;;;24.42;82.65
23417;BME280;11881;42.432;25.632;2022-07-29T01:45:14;99179.19;;;24.34;82.70
23417;BME280;11881;42.432;25.632;2022-07-29T01:47:49;99179.09;;;24.41;82.89
23417;BME280;11881;42.432;25.632;2022-07-29T01:50:21;99175.53;;;24.40;83.05
23417;BME280;11881;42.432;25.632;2022-07-29T01:52:56;99175.94;;;24.26;84.40
23417;BME280;11881;42.432;25.632;2022-07-29T01:55:28;99180.50;;;24.13;85.32
23417;BME280;11881;42.432;25.632;2022-07-29T01:57:57;99185.38;;;24.23;85.58
23417;BME280;11881;42.432;25.632;2022-07-29T02:00:25;99184.28;;;24.12;85.88
23417;BME280;11881;42.432;25.632;2022-07-29T02:02:53;99182.91;;;24.22;84.94
23417;BME280;11881;42.432;25.632;2022-07-29T02:05:20;99171.81;;;24.05;86.26
23417;BME280;11881;42.432;25.632;2022-07-29T02:07:48;99178.47;;;24.09;86.71
23417;BME280;11881;42.432;25.632;2022-07-29T02:10:15;99174.44;;;24.11;86.50
23417;BME280;11881;42.432;25.632;2022-07-29T02:12:43;99178.47;;;24.09;87.16
23417;BME280;11881;42.432;25.632;2022-07-29T02:15:11;99170.75;;;24.06;87.41
23417;BME280;11881;42.432;25.632;2022-07-29T02:17:51;99171.88;;;24.16;87.18
23417;BME280;11881;42.432;25.632;2022-07-29T02:20:19;99169.63;;;24.13;87.10
23417;BME280;11881;42.432;25.632;2022-07-29T02:22:46;99167.44;;;24.04;87.73
23417;BME280;11881;42.432;25.632;2022-07-29T02:25:12;99166.28;;;24.11;86.94
23417;BME280;11881;42.432;25.632;2022-07-29T02:27:40;99159.41;;;24.09;87.26
23417;BME280;11881;42.432;25.632;2022-07-29T02:30:07;99159.78;;;24.12;87.38
23417;BME280;11881;42.432;25.632;2022-07-29T02:32:35;99151.47;;;24.07;87.97
23417;BME280;11881;42.432;25.632;2022-07-29T02:35:03;99156.25;;;23.94;88.54
23417;BME280;11881;42.432;25.632;2022-07-29T02:37:29;99160.63;;;23.95;88.95
23417;BME280;11881;42.432;25.632;2022-07-29T02:39:57;99158.09;;;24.11;87.32
23417;BME280;11881;42.432;25.632;2022-07-29T02:42:24;99159.78;;;24.12;87.45
23417;BME280;11881;42.432;25.632;2022-07-29T02:44:51;99156.53;;;24.04;87.52
23417;BME280;11881;42.432;25.632;2022-07-29T02:47:24;99151.09;;;24.04;86.54
23417;BME280;11881;42.432;25.632;2022-07-29T02:50:00;99158.06;;;24.00;85.93
23417;BME280;11881;42.432;25.632;2022-07-29T02:57:33;99157.22;;;23.99;85.94
23417;BME280;11881;42.432;25.632;2022-07-29T03:00:04;99162.50;;;23.94;86.77
23417;BME280;11881;42.432;25.632;2022-07-29T03:02:37;99165.63;;;23.98;85.92
23417;BME280;11881;42.432;25.632;2022-07-29T03:05:06;99159.72;;;23.82;87.01
23417;BME280;11881;42.432;25.632;2022-07-29T03:07:34;99164.81;;;23.79;87.06
23417;BME280;11881;42.432;25.632;2022-07-29T03:10:00;99166.22;;;23.81;86.97
23417;BME280;11881;42.432;25.632;2022-07-29T03:12:28;99163.84;;;23.73;87.22
23417;BME280;11881;42.432;25.632;2022-07-29T03:14:54;99174.31;;;23.70;88.00
23417;BME280;11881;42.432;25.632;2022-07-29T03:17:21;99173.56;;;23.62;87.63
23417;BME280;11881;42.432;25.632;2022-07-29T03:19:47;99177.94;;;23.63;87.35
23417;BME280;11881;42.432;25.632;2022-07-29T03:22:13;99177.28;;;23.68;86.98
23417;BME280;11881;42.432;25.632;2022-07-29T03:24:39;99176.28;;;23.62;87.01
23417;BME280;11881;42.432;25.632;2022-07-29T03:27:04;99177.72;;;23.65;86.83
23417;BME280;11881;42.432;25.632;2022-07-29T03:29:31;99170.34;;;23.72;86.38
23417;BME280;11881;42.432;25.632;2022-07-29T03:31:56;99168.88;;;23.70;86.73
23417;BME280;11881;42.432;25.632;2022-07-29T03:34:22;99166.47;;;23.80;86.66
23417;BME280;11881;42.432;25.632;2022-07-29T03:36:48;99170.03;;;23.80;86.76
23417;BME280;11881;42.432;25.632;2022-07-29T03:39:18;99176.28;;;23.62;88.43
23417;BME280;11881;42.432;25.632;2022-07-29T03:41:47;99183.03;;;23.53;89.16
23417;BME280;11881;42.432;25.632;2022-07-29T03:44:15;99177.56;;;23.60;88.86
23417;BME280;11881;42.432;25.632;2022-07-29T03:46:43;99180.59;;;23.70;87.93
23417;BME280;11881;42.432;25.632;2022-07-29T03:49:10;99183.84;;;23.79;87.45
23417;BME280;11881;42.432;25.632;2022-07-29T03:51:37;99187.16;;;23.81;88.08
23417;BME280;11881;42.432;25.632;2022-07-29T03:54:04;99192.47;;;23.76;88.57
23417;BME280;11881;42.432;25.632;2022-07-29T03:56:32;99195.34;;;23.81;88.02
23417;BME280;11881;42.432;25.632;2022-07-29T03:59:01;99202.31;;;23.95;87.93
23417;BME280;11881;42.432;25.632;2022-07-29T04:01:28;99205.69;;;23.91;87.87
23417;BME280;11881;42.432;25.632;2022-07-29T04:03:55;99206.13;;;23.87;88.13
23417;BME280;11881;42.432;25.632;2022-07-29T04:06:20;99199.25;;;24.03;87.47
23417;BME280;11881;42.432;25.632;2022-07-29T04:08:46;99204.25;;;24.06;87.54
23417;BME280;11881;42.432;25.632;2022-07-29T04:11:12;99204.31;;;24.00;87.52
23417;BME280;11881;42.432;25.632;2022-07-29T04:13:37;99206.28;;;24.11;86.90
23417;BME280;11881;42.432;25.632;2022-07-29T04:16:03;99208.63;;;24.26;86.01
23417;BME280;11881;42.432;25.632;2022-07-29T04:18:28;99207.44;;;24.33;85.90
23417;BME280;11881;42.432;25.632;2022-07-29T04:20:54;99202.31;;;24.44;84.77
23417;BME280;11881;42.432;25.632;2022-07-29T04:23:19;99206.06;;;24.61;84.12
23417;BME280;11881;42.432;25.632;2022-07-29T04:25:44;99203.97;;;24.75;83.40
23417;BME280;11881;42.432;25.632;2022-07-29T04:28:10;99204.78;;;24.75;83.26
23417;BME280;11881;42.432;25.632;2022-07-29T04:30:37;99210.03;;;24.77;83.37
23417;BME280;11881;42.432;25.632;2022-07-29T04:33:05;99207.09;;;24.90;81.99
23417;BME280;11881;42.432;25.632;2022-07-29T04:35:33;99208.50;;;24.92;81.72
23417;BME280;11881;42.432;25.632;2022-07-29T04:37:58;99211.97;;;25.00;81.42
23417;BME280;11881;42.432;25.632;2022-07-29T04:40:24;99214.78;;;24.93;81.62
23417;BME280;11881;42.432;25.632;2022-07-29T04:42:49;99217.78;;;25.03;81.32
23417;BME280;11881;42.432;25.632;2022-07-29T04:45:14;99220.44;;;25.21;80.88
23417;BME280;11881;42.432;25.632;2022-07-29T04:47:40;99221.19;;;25.40;79.96
23417;BME280;11881;42.432;25.632;2022-07-29T04:50:07;99219.75;;;25.38;80.28
23417;BME280;11881;42.432;25.632;2022-07-29T04:52:32;99223.53;;;25.37;80.16
23417;BME280;11881;42.432;25.632;2022-07-29T04:54:59;99228.63;;;25.45;80.04
23417;BME280;11881;42.432;25.632;2022-07-29T04:57:25;99222.34;;;25.44;79.49
23417;BME280;11881;42.432;25.632;2022-07-29T04:59:50;99227.34;;;25.83;77.51
23417;BME280;11881;42.432;25.632;2022-07-29T05:02:15;99238.66;;;25.75;78.02
23417;BME280;11881;42.432;25.632;2022-07-29T05:04:41;99243.13;;;25.69;78.05
23417;BME280;11881;42.432;25.632;2022-07-29T05:07:06;99240.53;;;25.74;78.42
23417;BME280;11881;42.432;25.632;2022-07-29T05:09:32;99243.63;;;25.78;78.07
23417;BME280;11881;42.432;25.632;2022-07-29T05:11:58;99239.56;;;25.92;77.35
23417;BME280;11881;42.432;25.632;2022-07-29T05:14:23;99235.66;;;25.88;77.87
23417;BME280;11881;42.432;25.632;2022-07-29T05:16:48;99237.28;;;26.00;78.46
23417;BME280;11881;42.432;25.632;2022-07-29T05:19:16;99232.75;;;26.18;77.06
23417;BME280;11881;42.432;25.632;2022-07-29T05:21:42;99234.13;;;26.32;75.53
23417;BME280;11881;42.432;25.632;2022-07-29T05:24:07;99247.28;;;26.35;74.74
23417;BME280;11881;42.432;25.632;2022-07-29T05:26:33;99240.66;;;26.43;74.62
23417;BME280;11881;42.432;25.632;2022-07-29T05:28:58;99240.03;;;26.52;74.15
23417;BME280;11881;42.432;25.632;2022-07-29T05:31:24;99243.28;;;26.66;73.04
23417;BME280;11881;42.432;25.632;2022-07-29T05:33:49;99251.44;;;26.78;72.02
23417;BME280;11881;42.432;25.632;2022-07-29T05:36:15;99247.88;;;26.77;72.22
23417;BME280;11881;42.432;25.632;2022-07-29T05:38:40;99247.38;;;26.81;71.20
23417;BME280;11881;42.432;25.632;2022-07-29T05:41:06;99247.75;;;27.01;69.59
23417;BME280;11881;42.432;25.632;2022-07-29T05:43:32;99245.13;;;27.23;68.48
23417;BME280;11881;42.432;25.632;2022-07-29T05:45:57;99257.25;;;27.44;68.07
23417;BME280;11881;42.432;25.632;2022-07-29T05:48:23;99258.66;;;27.46;67.65
23417;BME280;11881;42.432;25.632;2022-07-29T05:50:49;99251.78;;;27.61;65.76
23417;BME280;11881;42.432;25.632;2022-07-29T05:53:14;99246.88;;;27.63;65.90
23417;BME280;11881;42.432;25.632;2022-07-29T05:55:40;99249.47;;;27.69;64.48
23417;BME280;11881;42.432;25.632;2022-07-29T05:58:05;99253.69;;;27.99;63.79
23417;BME280;11881;42.432;25.632;2022-07-29T06:00:31;99262.91;;;28.31;62.12
23417;BME280;11881;42.432;25.632;2022-07-29T06:02:56;99253.44;;;28.39;62.58
23417;BME280;11881;42.432;25.632;2022-07-29T06:05:22;99257.59;;;28.42;63.14
23417;BME280;11881;42.432;25.632;2022-07-29T06:07:48;99262.84;;;28.26;62.54
23417;BME280;11881;42.432;25.632;2022-07-29T06:10:13;99255.41;;;28.44;60.43
23417;BME280;11881;42.432;25.632;2022-07-29T06:12:39;99254.38;;;28.50;57.22
23417;BME280;11881;42.432;25.632;2022-07-29T06:15:05;99256.91;;;28.56;56.28
23417;BME280;11881;42.432;25.632;2022-07-29T06:17:30;99263.47;;;28.77;55.58
23417;BME280;11881;42.432;25.632;2022-07-29T06:19:56;99258.72;;;28.95;50.26
23417;BME280;11881;42.432;25.632;2022-07-29T06:22:21;99257.50;;;28.85;49.26
23417;BME280;11881;42.432;25.632;2022-07-29T06:24:47;99262.31;;;28.73;49.88
23417;BME280;11881;42.432;25.632;2022-07-29T06:27:12;99259.69;;;28.83;50.67
23417;BME280;11881;42.432;25.632;2022-07-29T06:29:39;99250.03;;;29.03;51.30
23417;BME280;11881;42.432;25.632;2022-07-29T06:32:04;99255.38;;;29.20;49.51
23417;BME280;11881;42.432;25.632;2022-07-29T06:34:30;99246.66;;;29.28;52.22
23417;BME280;11881;42.432;25.632;2022-07-29T06:36:55;99261.19;;;29.55;49.53
23417;BME280;11881;42.432;25.632;2022-07-29T06:39:21;99248.88;;;29.63;47.12
23417;BME280;11881;42.432;25.632;2022-07-29T06:41:47;99248.13;;;29.73;46.49
23417;BME280;11881;42.432;25.632;2022-07-29T06:44:14;99257.69;;;29.65;48.07
23417;BME280;11881;42.432;25.632;2022-07-29T06:46:39;99248.97;;;29.78;47.75
23417;BME280;11881;42.432;25.632;2022-07-29T06:49:05;99248.50;;;29.86;45.71
23417;BME280;11881;42.432;25.632;2022-07-29T06:51:30;99257.34;;;29.99;46.58
23417;BME280;11881;42.432;25.632;2022-07-29T06:53:56;99249.47;;;30.12;43.99
23417;BME280;11881;42.432;25.632;2022-07-29T06:56:22;99256.94;;;30.22;44.62
23417;BME280;11881;42.432;25.632;2022-07-29T06:58:48;99256.81;;;30.02;44.56
23417;BME280;11881;42.432;25.632;2022-07-29T07:01:13;99253.09;;;29.76;45.46
23417;BME280;11881;42.432;25.632;2022-07-29T07:03:39;99249.31;;;29.87;45.17
23417;BME280;11881;42.432;25.632;2022-07-29T07:06:04;99256.50;;;29.93;45.92
23417;BME280;11881;42.432;25.632;2022-07-29T07:08:30;99249.69;;;30.06;45.15
23417;BME280;11881;42.432;25.632;2022-07-29T07:10:55;99252.78;;;30.14;43.69
23417;BME280;11881;42.432;25.632;2022-07-29T07:13:22;99255.84;;;30.23;43.32
23417;BME280;11881;42.432;25.632;2022-07-29T07:15:48;99250.94;;;30.35;43.57
23417;BME280;11881;42.432;25.632;2022-07-29T07:18:14;99254.84;;;30.44;43.41
23417;BME280;11881;42.432;25.632;2022-07-29T07:20:40;99247.16;;;30.46;43.19
23417;BME280;11881;42.432;25.632;2022-07-29T07:23:06;99254.28;;;30.47;42.70
23417;BME280;11881;42.432;25.632;2022-07-29T07:25:31;99237.47;;;30.29;43.69
23417;BME280;11881;42.432;25.632;2022-07-29T07:27:57;99239.63;;;30.22;44.33
23417;BME280;11881;42.432;25.632;2022-07-29T07:30:22;99235.84;;;30.43;42.89
23417;BME280;11881;42.432;25.632;2022-07-29T07:32:48;99234.59;;;30.71;43.48
23417;BME280;11881;42.432;25.632;2022-07-29T07:35:13;99240.41;;;30.85;41.84
23417;BME280;11881;42.432;25.632;2022-07-29T07:37:39;99234.75;;;30.49;42.18
23417;BME280;11881;42.432;25.632;2022-07-29T07:40:10;99245.06;;;30.74;42.51
23417;BME280;11881;42.432;25.632;2022-07-29T07:42:40;99233.13;;;30.48;43.08
23417;BME280;11881;42.432;25.632;2022-07-29T07:45:06;99227.97;;;30.72;42.74
23417;BME280;11881;42.432;25.632;2022-07-29T07:47:34;99232.97;;;31.06;41.91
23417;BME280;11881;42.432;25.632;2022-07-29T07:49:59;99227.75;;;31.19;41.88
23417;BME280;11881;42.432;25.632;2022-07-29T07:52:25;99226.13;;;31.34;41.00
23417;BME280;11881;42.432;25.632;2022-07-29T07:54:50;99230.50;;;31.19;42.33
23417;BME280;11881;42.432;25.632;2022-07-29T07:57:16;99223.38;;;31.34;42.19
23417;BME280;11881;42.432;25.632;2022-07-29T07:59:42;99230.53;;;31.45;42.85
23417;BME280;11881;42.432;25.632;2022-07-29T08:02:08;99221.13;;;31.66;41.59
23417;BME280;11881;42.432;25.632;2022-07-29T08:04:34;99222.75;;;31.77;40.40
23417;BME280;11881;42.432;25.632;2022-07-29T08:07:01;99220.06;;;31.47;40.79
23417;BME280;11881;42.432;25.632;2022-07-29T08:09:27;99220.88;;;31.47;41.14
23417;BME280;11881;42.432;25.632;2022-07-29T08:11:53;99217.59;;;31.40;41.77
23417;BME280;11881;42.432;25.632;2022-07-29T08:14:19;99213.13;;;31.60;41.89
23417;BME280;11881;42.432;25.632;2022-07-29T08:16:45;99221.38;;;31.75;40.94
23417;BME280;11881;42.432;25.632;2022-07-29T08:19:10;99213.66;;;31.92;41.36
23417;BME280;11881;42.432;25.632;2022-07-29T08:21:36;99207.59;;;31.95;41.10
23417;BME280;11881;42.432;25.632;2022-07-29T08:24:02;99215.44;;;32.22;40.94
23417;BME280;11881;42.432;25.632;2022-07-29T08:26:46;99207.88;;;31.89;40.92
23417;BME280;11881;42.432;25.632;2022-07-29T08:29:12;99212.50;;;32.03;40.74
23417;BME280;11881;42.432;25.632;2022-07-29T08:31:38;99209.63;;;32.29;40.73
23417;BME280;11881;42.432;25.632;2022-07-29T08:34:04;99207.38;;;32.46;40.57
23417;BME280;11881;42.432;25.632;2022-07-29T08:36:30;99217.22;;;32.57;39.34
23417;BME280;11881;42.432;25.632;2022-07-29T08:38:55;99215.97;;;32.35;40.18
23417;BME280;11881;42.432;25.632;2022-07-29T08:41:22;99212.31;;;32.49;40.40
23417;BME280;11881;42.432;25.632;2022-07-29T08:43:48;99208.16;;;32.52;39.47
23417;BME280;11881;42.432;25.632;2022-07-29T08:46:15;99210.81;;;32.13;40.23
23417;BME280;11881;42.432;25.632;2022-07-29T08:48:42;99204.94;;;32.29;40.03
23417;BME280;11881;42.432;25.632;2022-07-29T08:51:07;99201.50;;;31.93;40.19
23417;BME280;11881;42.432;25.632;2022-07-29T08:53:34;99206.47;;;32.01;41.31
23417;BME280;11881;42.432;25.632;2022-07-29T08:56:00;99204.53;;;31.97;41.92
23417;BME280;11881;42.432;25.632;2022-07-29T08:58:31;99204.75;;;32.11;40.82
23417;BME280;11881;42.432;25.632;2022-07-29T09:01:01;99203.56;;;32.42;40.43
23417;BME280;11881;42.432;25.632;2022-07-29T09:03:31;99199.16;;;32.36;39.47
23417;BME280;11881;42.432;25.632;2022-07-29T09:05:58;99197.53;;;32.30;39.51
23417;BME280;11881;42.432;25.632;2022-07-29T09:08:24;99184.81;;;32.34;39.71
23417;BME280;11881;42.432;25.632;2022-07-29T09:10:50;99181.94;;;32.60;39.84
23417;BME280;11881;42.432;25.632;2022-07-29T09:13:16;99186.41;;;32.45;39.19
23417;BME280;11881;42.432;25.632;2022-07-29T09:15:42;99192.63;;;32.66;39.20
23417;BME280;11881;42.432;25.632;2022-07-29T09:18:07;99187.69;;;32.63;40.22
23417;BME280;11881;42.432;25.632;2022-07-29T09:20:33;99181.22;;;32.39;40.02
23417;BME280;11881;42.432;25.632;2022-07-29T09:23:17;99181.47;;;32.47;40.23
23417;BME280;11881;42.432;25.632;2022-07-29T09:25:42;99173.41;;;32.51;40.81
23417;BME280;11881;42.432;25.632;2022-07-29T09:28:09;99189.31;;;32.64;39.33
23417;BME280;11881;42.432;25.632;2022-07-29T09:30:36;99175.53;;;32.64;38.85
23417;BME280;11881;42.432;25.632;2022-07-29T09:33:14;99167.50;;;32.68;39.15
23417;BME280;11881;42.432;25.632;2022-07-29T09:35:40;99159.34;;;32.92;39.26
23417;BME280;11881;42.432;25.632;2022-07-29T09:38:13;99166.22;;;32.99;38.96
23417;BME280;11881;42.432;25.632;2022-07-29T09:40:39;99169.88;;;32.90;39.25
23417;BME280;11881;42.432;25.632;2022-07-29T09:43:13;99167.88;;;32.95;38.83
23417;BME280;11881;42.432;25.632;2022-07-29T09:45:38;99168.38;;;33.02;38.49
23417;BME280;11881;42.432;25.632;2022-07-29T09:50:42;99169.66;;;32.76;38.94
23417;BME280;11881;42.432;25.632;2022-07-29T09:53:09;99173.59;;;33.04;37.89
23417;BME280;11881;42.432;25.632;2022-07-29T09:55:51;99177.91;;;32.81;37.28
23417;BME280;11881;42.432;25.632;2022-07-29T09:58:18;99172.06;;;32.48;37.80
23417;BME280;11881;42.432;25.632;2022-07-29T10:00:45;99170.09;;;32.54;38.28
23417;BME280;11881;42.432;25.632;2022-07-29T10:03:11;99166.47;;;32.58;38.46
23417;BME280;11881;42.432;25.632;2022-07-29T10:05:37;99155.78;;;32.91;37.79
23417;BME280;11881;42.432;25.632;2022-07-29T10:08:03;99169.28;;;33.22;37.12
23417;BME280;11881;42.432;25.632;2022-07-29T10:10:32;99163.13;;;33.35;35.84
23417;BME280;11881;42.432;25.632;2022-07-29T10:13:04;99156.19;;;33.08;35.40
23417;BME280;11881;42.432;25.632;2022-07-29T10:15:32;99157.25;;;33.13;36.28
23417;BME280;11881;42.432;25.632;2022-07-29T10:17:58;99160.44;;;33.25;35.81
23417;BME280;11881;42.432;25.632;2022-07-29T10:20:25;99156.56;;;33.26;36.80
23417;BME280;11881;42.432;25.632;2022-07-29T10:22:53;99146.16;;;33.18;35.93
23417;BME280;11881;42.432;25.632;2022-07-29T10:25:19;99143.84;;;33.30;36.44
23417;BME280;11881;42.432;25.632;2022-07-29T10:27:46;99141.81;;;33.65;35.59
23417;BME280;11881;42.432;25.632;2022-07-29T10:30:14;99134.34;;;33.65;35.76
23417;BME280;11881;42.432;25.632;2022-07-29T10:43:34;99126.34;;;34.11;33.63
23417;BME280;11881;42.432;25.632;2022-07-29T10:46:02;99112.81;;;34.29;34.12
23417;BME280;11881;42.432;25.632;2022-07-29T10:48:29;99133.56;;;34.50;33.87
23417;BME280;11881;42.432;25.632;2022-07-29T10:53:46;99119.00;;;34.21;34.07
23417;BME280;11881;42.432;25.632;2022-07-29T10:56:29;99103.38;;;34.30;34.15
23417;BME280;11881;42.432;25.632;2022-07-29T11:01:45;99116.41;;;34.48;33.77
23417;BME280;11881;42.432;25.632;2022-07-29T11:04:11;99112.53;;;34.49;33.47
23417;BME280;11881;42.432;25.632;2022-07-29T11:09:24;99108.22;;;34.38;33.70
23417;BME280;11881;42.432;25.632;2022-07-29T11:11:49;99111.78;;;34.62;33.73
23417;BME280;11881;42.432;25.632;2022-07-29T11:14:15;99110.50;;;34.17;33.24
23417;BME280;11881;42.432;25.632;2022-07-29T11:16:59;99103.84;;;33.99;34.45
23417;BME280;11881;42.432;25.632;2022-07-29T11:19:27;99107.44;;;34.56;33.36
23417;BME280;11881;42.432;25.632;2022-07-29T11:21:53;99090.53;;;34.90;33.40
23417;BME280;11881;42.432;25.632;2022-07-29T11:24:27;99083.34;;;34.89;32.45
23417;BME280;11881;42.432;25.632;2022-07-29T11:27:13;99084.25;;;35.04;32.02
23417;BME280;11881;42.432;25.632;2022-07-29T11:29:59;99094.28;;;35.00;32.93
23417;BME280;11881;42.432;25.632;2022-07-29T11:32:38;99100.25;;;34.88;32.96
23417;BME280;11881;42.432;25.632;2022-07-29T11:37:35;99092.69;;;34.42;32.96
23417;BME280;11881;42.432;25.632;2022-07-29T11:47:31;99069.56;;;35.03;32.17
23417;BME280;11881;42.432;25.632;2022-07-29T11:49:58;99054.09;;;35.30;32.18
23417;BME280;11881;42.432;25.632;2022-07-29T11:52:32;99063.41;;;35.06;33.11
23417;BME280;11881;42.432;25.632;2022-07-29T11:55:01;99060.25;;;35.27;32.56
23417;BME280;11881;42.432;25.632;2022-07-29T11:57:27;99058.28;;;35.13;32.52
23417;BME280;11881;42.432;25.632;2022-07-29T11:59:53;99044.88;;;35.21;32.46
23417;BME280;11881;42.432;25.632;2022-07-29T12:02:20;99048.75;;;35.19;32.28
23417;BME280;11881;42.432;25.632;2022-07-29T12:04:54;99043.53;;;35.04;33.14
23417;BME280;11881;42.432;25.632;2022-07-29T12:07:30;99050.50;;;35.15;33.00
23417;BME280;11881;42.432;25.632;2022-07-29T12:09:56;99051.94;;;35.40;32.02
23417;BME280;11881;42.432;25.632;2022-07-29T12:12:22;99042.44;;;35.47;32.03
23417;BME280;11881;42.432;25.632;2022-07-29T12:14:48;99038.00;;;35.59;31.83
23417;BME280;11881;42.432;25.632;2022-07-29T12:17:32;99030.63;;;35.55;31.92
23417;BME280;11881;42.432;25.632;2022-07-29T12:19:59;99029.97;;;35.71;31.76
23417;BME280;11881;42.432;25.632;2022-07-29T12:22:33;99023.16;;;35.91;31.30
23417;BME280;11881;42.432;25.632;2022-07-29T12:25:04;99023.13;;;35.55;31.57
23417;BME280;11881;42.432;25.632;2022-07-29T12:27:31;99023.75;;;35.38;31.34
23417;BME280;11881;42.432;25.632;2022-07-29T12:30:01;99029.06;;;35.49;31.75
23417;BME280;11881;42.432;25.632;2022-07-29T12:32:34;99031.84;;;35.35;31.80
23417;BME280;11881;42.432;25.632;2022-07-29T12:35:05;99034.97;;;34.35;33.30
23417;BME280;11881;42.432;25.632;2022-07-29T12:37:35;99030.34;;;34.50;33.51
23417;BME280;11881;42.432;25.632;2022-07-29T12:40:03;99019.75;;;34.84;32.76
23417;BME280;11881;42.432;25.632;2022-07-29T12:42:29;99025.69;;;34.64;33.19
23417;BME280;11881;42.432;25.632;2022-07-29T12:44:54;99011.19;;;35.13;32.55
23417;BME280;11881;42.432;25.632;2022-07-29T12:47:20;99012.25;;;35.45;32.32
23417;BME280;11881;42.432;25.632;2022-07-29T12:49:47;99003.31;;;35.48;32.08
23417;BME280;11881;42.432;25.632;2022-07-29T12:52:30;99004.44;;;35.19;32.85
23417;BME280;11881;42.432;25.632;2022-07-29T12:54:57;98998.91;;;35.33;32.00
23417;BME280;11881;42.432;25.632;2022-07-29T12:57:23;99001.91;;;35.51;32.41
23417;BME280;11881;42.432;25.632;2022-07-29T13:00:21;98997.56;;;35.72;31.97
23417;BME280;11881;42.432;25.632;2022-07-29T13:02:55;98998.06;;;35.74;31.84
23417;BME280;11881;42.432;25.632;2022-07-29T13:05:21;98989.19;;;35.86;31.85
23417;BME280;11881;42.432;25.632;2022-07-29T13:07:47;98982.66;;;35.68;32.46
23417;BME280;11881;42.432;25.632;2022-07-29T13:10:17;98987.91;;;36.06;32.56
23417;BME280;11881;42.432;25.632;2022-07-29T13:13:09;98974.03;;;35.69;32.25
23417;BME280;11881;42.432;25.632;2022-07-29T13:15:40;98986.66;;;35.76;32.47
23417;BME280;11881;42.432;25.632;2022-07-29T13:18:32;98974.16;;;35.37;31.91
23417;BME280;11881;42.432;25.632;2022-07-29T13:21:13;98979.22;;;35.21;32.60
23417;BME280;11881;42.432;25.632;2022-07-29T13:23:39;98983.31;;;34.96;33.29
23417;BME280;11881;42.432;25.632;2022-07-29T13:26:10;98969.16;;;34.19;33.84
23417;BME280;11881;42.432;25.632;2022-07-29T13:28:37;98969.63;;;34.07;35.28
23417;BME280;11881;42.432;25.632;2022-07-29T13:31:02;98962.66;;;33.91;36.24
23417;BME280;11881;42.432;25.632;2022-07-29T13:33:28;98978.56;;;33.80;36.13
23417;BME280;11881;42.432;25.632;2022-07-29T13:35:53;98968.97;;;33.96;36.05
23417;BME280;11881;42.432;25.632;2022-07-29T13:38:18;98970.75;;;33.87;35.49
23417;BME280;11881;42.432;25.632;2022-07-29T13:40:44;98970.75;;;34.06;34.82